Escondido, CA (92029)

11:07 PM PDT on September 20, 2014 (GMT -0700)
Lake Hodges | Change Station
CLOSE
Current Station
Personal Weather Station
Location: Escondido, CA
Elevation: 361 ft
Nearby Weather Stations

Elev 361 ft 33.07 °N, 117.10 °W | Updated 8 seconds ago

Clear
Clear
64.8 °F
Feels Like 64.8 °F
N
3.1
Wind Variable Wind from North
Gusts 3.1 mph

Today
High -- | Low -- °F
--% Chance of Precip.
Yesterday
High -- | Low -- °F
Precip. -- in
6:35 AM 6:47 PM
Waning Crescent, 8% visible
Pressure 29.93 in
Visibility 10.0 miles
Clouds Clear
Dew Point 63 °F
Humidity 95%
Rainfall 0.00 in
Snow Depth 1 in , 0 in , 0 in
UV 0 out of 12
Pollen 5.50 out of 12
Ozone Good
PM2.5 Good
Flu Activity Not available.
METAR KCRQ 210553Z AUTO 00000KT 10SM CLR 21/16 A2994 RMK AO2 SLP135 T02060161 10228 20206 51012

More Conditions Fewer Conditions

Pressure 29.93 in
Visibility 10.0 miles
Clouds Clear
Dew Point 63 °F
Humidity 95%
Rainfall 0.00 in
Snow Depth 1 in , 0 in , 0 in
UV 0 out of 12
Pollen 5.50 out of 12
Ozone Good
PM2.5 Good
Flu Activity Not available.
METAR KCRQ 210553Z AUTO 00000KT 10SM CLR 21/16 A2994 RMK AO2 SLP135 T02060161 10228 20206 51012

More Conditions Fewer Conditions

10-Day Weather Forecast

Almanac

Astronomy

Sep. 20, 2014 Rise Set
Actual Time 6:35 AM PDT 6:47 PM PDT
Civil Twilight 6:10 AM PDT 7:12 PM PDT
Nautical Twilight 5:41 AM PDT 7:41 PM PDT
Astronomical Twilight 5:12 AM PDT 8:10 PM PDT
Moon 3:26 AM PDT (9/20) 4:46 PM PDT (9/20)
Length of Visible Light 13h 01m
Length of Day
12h 12m
Tomorrow will be 2m 1s shorter.
Waning Crescent, 8% of the Moon is Illuminated
Sep 21
Waning Crescent
Sep 24
New
Oct 1
First Quarter
Oct 8
Full
Oct 15
Last Quarter

Yesterday's Extremes

State Highs State Lows

Community

WunderPhotos

Upload Photos

1,755,098 photos uploaded!

Nearby

Air Quality

  Air Quality AQ Index Pollutant
Yesterday Good
OZONE
Yesterday Good
PM2.5
Current Good
PM2.5
Current Good
OZONE
Saturday Good
PM2.5
Saturday Good
OZONE
Sunday Good
PM2.5
Sunday Good
OZONE
Monday Moderate
PM2.5
Monday Good
OZONE

Snow Depth

Station Depth Elevation
Monitor Pass 1 in 8350 ft
Forestdale Creek 0 in 8029 ft
Tahoe City Cross 0 in 6750 ft
Leavitt Meadows 1 in 7200 ft
Leavitt Lake 0 in 9400 ft

Earthquake Activity

City Distance Mag. Time & Date
Aguanga, California 31 miles 2.5 1:38 AM PDT
2014-09-19
Minimum magnitude displayed is 2.5.

Coastal Water Temperatures

Place Temperature
La Jolla, CA 72.0 °F
San Diego, CA 75.9 °F

Nearby Weather Stations